Time;durP1;ratioP1;P1;durP2;ratioP2;P2;SDS_P1;SDS_P2;PMS_P1;PMS_P2;Temp;Humidity;BMP_temperature;BMP_pressure;BME280_temperature;BME280_humidity;BME280_pressure;Samples;Min_cycle;Max_cycle;Signal;HPM_P1;HPM_P2
2022/09/13 00:01:05;;;;;;;8.00;1.88;;;18.20;93.60;;;;;;5036824;28;20494;-81
2022/09/13 00:03:33;;;;;;;6.72;1.50;;;18.10;92.40;;;;;;5065562;28;20371;-82
2022/09/13 00:06:12;;;;;;;7.03;1.50;;;17.90;91.30;;;;;;5057882;28;20388;-85
2022/09/13 00:08:43;;;;;;;4.47;1.60;;;17.40;90.90;;;;;;5071986;28;20364;-81
2022/09/13 00:11:25;;;;;;;5.35;1.50;;;17.00;91.90;;;;;;5059205;28;20399;-83
2022/09/13 00:13:54;;;;;;;3.85;1.20;;;16.80;91.90;;;;;;5057773;28;20364;-84
2022/09/13 00:16:23;;;;;;;5.25;1.30;;;16.60;91.20;;;;;;5041553;28;20437;-81
2022/09/13 00:18:51;;;;;;;5.68;1.50;;;16.40;91.80;;;;;;5055779;28;20371;-86
2022/09/13 00:21:20;;;;;;;4.53;1.35;;;16.50;92.90;;;;;;5040894;28;20375;-82
2022/09/13 00:23:50;;;;;;;3.83;1.20;;;16.30;93.20;;;;;;5057118;28;20379;-84
2022/09/13 00:26:21;;;;;;;3.80;1.30;;;16.40;93.60;;;;;;5058557;28;20489;-83
2022/09/13 00:28:53;;;;;;;10.02;1.80;;;16.40;94.10;;;;;;5061097;28;20383;-82
2022/09/13 00:31:26;;;;;;;11.23;2.35;;;16.40;93.40;;;;;;5063543;28;20459;-82
2022/09/13 00:33:53;;;;;;;3.27;1.30;;;16.60;92.90;;;;;;5058459;28;20364;-84
2022/09/13 00:36:21;;;;;;;8.45;1.70;;;16.60;92.10;;;;;;5062692;28;20419;-84
2022/09/13 00:38:50;;;;;;;10.40;1.95;;;17.10;91.80;;;;;;5059439;28;20751;-82
2022/09/13 00:41:19;;;;;;;22.23;2.78;;;17.40;90.80;;;;;;5039844;28;20395;-80
2022/09/13 00:44:31;;;;;;;13.93;2.03;;;17.70;90.00;;;;;;5071897;28;20381;-79
2022/09/13 00:46:58;;;;;;;8.27;1.50;;;17.60;89.20;;;;;;4949369;29;20400;-79
2022/09/13 00:49:38;;;;;;;7.03;1.27;;;17.50;85.40;;;;;;4960108;28;20511;-85
2022/09/13 00:52:13;;;;;;;4.20;1.10;;;17.30;83.90;;;;;;4959399;28;20523;-82
2022/09/13 00:55:11;;;;;;;3.38;1.10;;;17.20;84.60;;;;;;4959072;28;20387;-80
2022/09/13 00:57:40;;;;;;;4.93;1.10;;;17.10;85.30;;;;;;4939947;28;20951;-85
2022/09/13 01:00:17;;;;;;;2.75;1.15;;;17.00;86.80;;;;;;4959973;29;20374;-85
2022/09/13 01:02:59;;;;;;;2.25;1.10;;;16.90;87.10;;;;;;4961861;28;20381;-84
2022/09/13 01:05:32;;;;;;;2.58;0.90;;;16.80;88.20;;;;;;4958929;28;20360;-83
2022/09/13 01:08:01;;;;;;;2.20;1.05;;;16.90;87.90;;;;;;4958074;28;20376;-80
2022/09/13 01:10:30;;;;;;;2.05;1.10;;;17.20;88.40;;;;;;4960939;28;20558;-83
2022/09/13 01:13:13;;;;;;;4.30;1.50;;;17.70;86.70;;;;;;4966671;28;20415;-83
2022/09/13 01:15:41;;;;;;;4.80;1.25;;;18.20;85.90;;;;;;4959594;28;20384;-81
2022/09/13 01:18:09;;;;;;;4.03;1.65;;;18.50;84.80;;;;;;4960528;28;20567;-80
2022/09/13 01:21:13;;;;;;;4.10;1.48;;;18.60;84.60;;;;;;4958227;28;20387;-84
2022/09/13 01:24:28;;;;;;;5.78;1.55;;;18.90;82.70;;;;;;5006500;28;20386;-84
2022/09/13 01:27:37;;;;;;;6.38;1.85;;;19.40;81.90;;;;;;4965405;28;20467;-80
2022/09/13 01:30:17;;;;;;;6.60;1.80;;;19.80;78.20;;;;;;4955879;28;20392;-83
2022/09/13 01:33:10;;;;;;;6.43;1.52;;;20.30;76.20;;;;;;4940510;28;20384;-85
2022/09/13 01:36:31;;;;;;;2.95;1.60;;;21.00;74.30;;;;;;4953043;28;20908;-84
2022/09/13 01:39:20;;;;;;;4.35;1.40;;;21.60;70.20;;;;;;4953663;28;21109;-85
2022/09/13 01:41:52;;;;;;;4.57;1.40;;;21.90;67.20;;;;;;4956385;28;20384;-84
2022/09/13 01:44:43;;;;;;;4.33;1.60;;;22.00;65.50;;;;;;4955368;28;20431;-83
2022/09/13 01:47:23;;;;;;;3.17;1.20;;;22.20;62.20;;;;;;4955695;28;20384;-84
2022/09/13 01:50:19;;;;;;;3.17;1.20;;;22.60;62.30;;;;;;4940935;29;20395;-82
2022/09/13 01:53:01;;;;;;;4.22;1.35;;;22.90;60.30;;;;;;4939289;28;20380;-85
2022/09/13 01:55:28;;;;;;;4.80;1.50;;;22.90;60.60;;;;;;4955532;28;20387;-85
2022/09/13 01:58:03;;;;;;;6.35;1.40;;;22.90;58.90;;;;;;4954998;28;20784;-82
2022/09/13 02:00:37;;;;;;;2.88;1.10;;;22.70;58.20;;;;;;4957307;29;20782;-86
2022/09/13 02:03:21;;;;;;;2.58;1.23;;;21.30;58.90;;;;;;5001290;28;20855;-80
2022/09/13 02:06:02;;;;;;;3.30;1.40;;;20.40;60.40;;;;;;5055443;28;20404;-84
2022/09/13 02:08:44;;;;;;;5.82;1.42;;;20.50;62.00;;;;;;5055267;28;20360;-82
2022/09/13 02:11:14;;;;;;;4.87;1.20;;;20.40;63.50;;;;;;5068169;28;20370;-82
2022/09/13 02:13:53;;;;;;;3.30;1.33;;;20.30;63.30;;;;;;5061271;28;20933;-84
2022/09/13 02:16:40;;;;;;;4.15;1.30;;;19.80;63.80;;;;;;5076488;28;20463;-83
2022/09/13 02:19:17;;;;;;;4.03;1.40;;;19.30;66.10;;;;;;5037781;28;20362;-82
2022/09/13 02:21:49;;;;;;;6.20;1.30;;;19.10;64.60;;;;;;5035572;28;20393;-81
2022/09/13 02:24:24;;;;;;;4.05;1.10;;;18.80;66.40;;;;;;5035422;28;20372;-80
2022/09/13 02:26:54;;;;;;;4.95;1.30;;;18.50;67.60;;;;;;5051707;28;20459;-83
2022/09/13 02:29:24;;;;;;;4.10;1.20;;;18.50;67.60;;;;;;5051853;28;20711;-84
2022/09/13 02:32:12;;;;;;;3.78;1.30;;;18.60;67.00;;;;;;5051639;28;20903;-83
2022/09/13 02:35:21;;;;;;;3.73;1.30;;;18.60;67.30;;;;;;5039948;28;20416;-82
2022/09/13 02:38:21;;;;;;;4.65;1.60;;;18.80;66.50;;;;;;5051274;28;20483;-82
2022/09/13 02:40:57;;;;;;;4.47;1.43;;;18.40;67.60;;;;;;5050306;28;20397;-82
2022/09/13 02:43:37;;;;;;;4.37;1.20;;;18.60;67.90;;;;;;5061108;28;20363;-81
2022/09/13 02:46:20;;;;;;;3.70;1.10;;;19.80;65.60;;;;;;5051206;28;20866;-80
2022/09/13 02:48:59;;;;;;;2.03;1.02;;;22.10;60.80;;;;;;5051252;28;20682;-80
2022/09/13 02:51:55;;;;;;;4.20;1.27;;;24.30;56.80;;;;;;5037857;28;20372;-80
2022/09/13 02:54:44;;;;;;;4.65;1.30;;;25.10;53.00;;;;;;4970157;28;20378;-81
2022/09/13 02:57:19;;;;;;;4.18;1.20;;;25.40;52.20;;;;;;4972513;28;21008;-80
2022/09/13 02:59:48;;;;;;;3.25;1.20;;;26.30;49.80;;;;;;4958621;28;20750;-83
2022/09/13 03:02:22;;;;;;;3.08;1.30;;;26.50;49.00;;;;;;4974504;28;20503;-82
2022/09/13 03:04:51;;;;;;;5.43;1.20;;;26.40;47.50;;;;;;4975407;28;20379;-83
2022/09/13 03:07:18;;;;;;;4.53;1.30;;;26.60;49.10;;;;;;4974560;28;20881;-81
2022/09/13 03:09:55;;;;;;;6.45;1.40;;;26.70;48.10;;;;;;4972417;28;20751;-84
2022/09/13 03:12:28;;;;;;;4.03;1.30;;;26.20;47.70;;;;;;4977733;28;20377;-80
2022/09/13 03:15:24;;;;;;;3.27;1.13;;;25.00;47.40;;;;;;4977036;28;20441;-81
2022/09/13 03:18:07;;;;;;;2.92;1.27;;;23.50;49.00;;;;;;4970546;28;20943;-83
2022/09/13 03:21:14;;;;;;;4.15;1.20;;;22.30;53.00;;;;;;4970409;28;20381;-84
2022/09/13 03:24:02;;;;;;;4.20;1.27;;;22.90;53.10;;;;;;4973643;28;20382;-81
2022/09/13 03:26:59;;;;;;;3.77;1.17;;;23.00;51.30;;;;;;4974686;28;20390;-80
2022/09/13 03:29:50;;;;;;;3.10;1.20;;;22.20;51.80;;;;;;4972174;28;20382;-85
2022/09/13 03:32:41;;;;;;;3.20;1.10;;;21.90;52.80;;;;;;5047565;28;20375;-82
2022/09/13 03:35:26;;;;;;;3.90;1.10;;;22.00;54.10;;;;;;5062848;28;20374;-84
2022/09/13 03:38:08;;;;;;;4.03;1.20;;;23.30;52.30;;;;;;5037103;28;20744;-84
2022/09/13 03:40:53;;;;;;;5.57;1.10;;;24.30;50.20;;;;;;5032275;28;20392;-85
2022/09/13 03:43:20;;;;;;;3.80;1.20;;;24.70;49.30;;;;;;5049882;28;20364;-84
2022/09/13 03:45:57;;;;;;;2.47;1.10;;;26.10;47.00;;;;;;5052466;28;20371;-81
2022/09/13 03:48:26;;;;;;;2.75;1.17;;;26.70;45.80;;;;;;5061452;28;20414;-85
2022/09/13 03:50:54;;;;;;;3.53;1.10;;;27.30;44.90;;;;;;5050577;28;20370;-84
2022/09/13 03:53:25;;;;;;;3.20;1.10;;;27.70;44.50;;;;;;5047643;28;20475;-85
2022/09/13 03:55:53;;;;;;;3.05;1.20;;;27.70;44.40;;;;;;5051302;28;20376;-84
2022/09/13 03:58:21;;;;;;;4.97;1.30;;;27.50;43.40;;;;;;5063142;28;20368;-83
2022/09/13 04:00:49;;;;;;;2.78;1.13;;;27.70;44.20;;;;;;5050312;28;20367;-83
2022/09/13 04:03:16;;;;;;;3.47;1.20;;;27.70;44.10;;;;;;5050270;28;20720;-84
2022/09/13 04:05:43;;;;;;;3.70;1.10;;;28.00;43.10;;;;;;5050728;28;20361;-82
2022/09/13 04:08:10;;;;;;;2.05;1.10;;;27.70;43.70;;;;;;5050691;28;20443;-81
2022/09/13 04:10:38;;;;;;;2.78;1.00;;;27.50;44.40;;;;;;5036878;28;20364;-83
2022/09/13 04:13:05;;;;;;;3.75;1.20;;;27.10;43.70;;;;;;5050213;28;20378;-84
2022/09/13 04:15:32;;;;;;;2.83;1.15;;;25.10;46.30;;;;;;5050624;28;20391;-84
2022/09/13 04:18:00;;;;;;;3.47;1.10;;;24.30;48.50;;;;;;5050706;28;20477;-83
2022/09/13 04:20:28;;;;;;;5.47;1.35;;;24.00;48.30;;;;;;5050455;28;20368;-83
2022/09/13 04:22:56;;;;;;;3.20;1.10;;;22.90;50.00;;;;;;5053869;28;20372;-81
2022/09/13 04:25:23;;;;;;;4.43;1.20;;;23.80;49.00;;;;;;5055413;28;20399;-79
2022/09/13 04:28:01;;;;;;;4.20;1.02;;;24.50;48.10;;;;;;5051021;28;20371;-83
2022/09/13 04:30:28;;;;;;;3.67;1.08;;;24.80;47.70;;;;;;5050637;28;20388;-79
2022/09/13 04:32:58;;;;;;;4.37;1.30;;;25.20;47.50;;;;;;5051875;28;20372;-79
2022/09/13 04:35:26;;;;;;;3.10;1.20;;;25.10;45.40;;;;;;5050613;28;20889;-83
2022/09/13 04:37:58;;;;;;;3.80;1.10;;;24.20;46.60;;;;;;5050682;28;20414;-85
2022/09/13 04:40:26;;;;;;;5.30;1.30;;;23.60;48.30;;;;;;5050731;28;20386;-87
2022/09/13 04:42:53;;;;;;;5.60;1.33;;;22.80;49.90;;;;;;5050617;28;20400;-82
2022/09/13 04:45:23;;;;;;;3.83;1.15;;;22.60;50.90;;;;;;5050393;28;20364;-82
2022/09/13 04:47:55;;;;;;;4.95;1.30;;;22.70;50.90;;;;;;5051000;28;20698;-80
2022/09/13 04:50:24;;;;;;;3.35;1.15;;;22.00;51.80;;;;;;5050788;28;20404;-84
2022/09/13 04:52:55;;;;;;;5.75;1.35;;;21.60;52.50;;;;;;5064558;28;20723;-84
2022/09/13 04:55:24;;;;;;;2.60;1.13;;;21.40;53.70;;;;;;5053879;28;20371;-82
2022/09/13 04:57:55;;;;;;;3.58;1.20;;;20.80;54.40;;;;;;5071044;28;20957;-82
2022/09/13 05:00:23;;;;;;;2.58;1.20;;;20.20;55.90;;;;;;5053353;28;20384;-84
2022/09/13 05:02:55;;;;;;;3.25;1.27;;;19.50;56.30;;;;;;5053440;28;20379;-81
2022/09/13 05:05:24;;;;;;;3.90;1.05;;;19.50;57.60;;;;;;5053275;28;20843;-84
2022/09/13 05:07:52;;;;;;;3.10;1.20;;;20.90;56.20;;;;;;5053577;28;20383;-84
2022/09/13 05:10:19;;;;;;;4.63;1.10;;;22.40;52.50;;;;;;5053172;28;20376;-80
2022/09/13 05:12:47;;;;;;;3.42;1.17;;;23.20;50.50;;;;;;5035061;28;20384;-84
2022/09/13 05:15:14;;;;;;;3.37;1.10;;;23.00;49.40;;;;;;5053131;28;20461;-85
2022/09/13 05:17:41;;;;;;;4.28;1.10;;;21.60;51.70;;;;;;5053311;28;20391;-79
2022/09/13 05:20:09;;;;;;;2.60;1.17;;;20.40;53.50;;;;;;5053364;28;20372;-80
2022/09/13 05:22:36;;;;;;;3.60;1.05;;;19.50;55.70;;;;;;5053194;28;20940;-80
2022/09/13 05:25:03;;;;;;;3.33;1.00;;;19.20;56.30;;;;;;5052880;28;20426;-82
2022/09/13 05:27:30;;;;;;;2.72;1.17;;;20.00;56.60;;;;;;5067217;28;20376;-83
2022/09/13 05:29:58;;;;;;;2.22;1.08;;;21.40;54.30;;;;;;5052993;28;20863;-81
2022/09/13 05:32:25;;;;;;;4.95;1.00;;;22.40;52.10;;;;;;5052635;28;20383;-84
2022/09/13 05:34:52;;;;;;;3.80;1.13;;;22.80;50.70;;;;;;5052678;28;20380;-83
2022/09/13 05:37:19;;;;;;;3.25;1.00;;;23.30;49.40;;;;;;5052589;28;20383;-86
2022/09/13 05:39:46;;;;;;;1.85;0.98;;;23.60;48.60;;;;;;5060655;28;20734;-80
2022/09/13 05:42:13;;;;;;;2.97;1.00;;;23.60;48.90;;;;;;5058540;28;20387;-82
2022/09/13 05:44:40;;;;;;;4.43;1.02;;;23.60;48.80;;;;;;5052584;28;20370;-83
2022/09/13 05:47:07;;;;;;;2.90;1.10;;;23.40;49.50;;;;;;5052721;28;20438;-84
2022/09/13 05:49:36;;;;;;;2.58;1.10;;;23.50;49.00;;;;;;5066502;28;20376;-85
2022/09/13 05:52:03;;;;;;;3.17;1.00;;;23.20;49.40;;;;;;5052705;28;20368;-82
2022/09/13 05:54:30;;;;;;;4.47;1.10;;;22.80;50.80;;;;;;5066446;28;20735;-85
2022/09/13 05:56:57;;;;;;;4.35;1.10;;;22.40;51.20;;;;;;5044043;28;20407;-84
2022/09/13 05:59:24;;;;;;;3.90;1.20;;;22.40;51.40;;;;;;5064753;28;20760;-85
2022/09/13 06:01:51;;;;;;;3.25;1.10;;;22.40;51.00;;;;;;5065438;28;20376;-85
2022/09/13 06:04:19;;;;;;;4.47;1.10;;;22.50;51.30;;;;;;5051662;28;20380;-81
2022/09/13 06:06:46;;;;;;;4.28;1.13;;;22.20;51.40;;;;;;5052113;28;20847;-81
2022/09/13 06:09:13;;;;;;;3.53;1.20;;;21.90;51.80;;;;;;5052732;28;20458;-79
2022/09/13 06:11:40;;;;;;;3.40;1.17;;;21.90;51.90;;;;;;5052777;28;20470;-82
2022/09/13 06:14:08;;;;;;;2.92;1.17;;;22.20;52.10;;;;;;5072493;28;20432;-78
2022/09/13 06:16:36;;;;;;;3.77;1.20;;;22.20;52.00;;;;;;5072183;28;20389;-82
2022/09/13 06:19:03;;;;;;;3.65;1.10;;;21.40;53.10;;;;;;5055952;28;20767;-81
2022/09/13 06:21:31;;;;;;;4.72;1.20;;;20.80;54.40;;;;;;5057179;28;20417;-79
2022/09/13 06:24:02;;;;;;;3.38;1.08;;;20.70;55.10;;;;;;5061756;28;20529;-84
2022/09/13 06:26:30;;;;;;;2.92;1.00;;;20.70;55.30;;;;;;5065301;28;20372;-87
2022/09/13 06:28:58;;;;;;;3.70;1.17;;;20.30;55.40;;;;;;5055483;28;20364;-81
2022/09/13 06:31:27;;;;;;;5.10;1.40;;;19.40;57.00;;;;;;5053693;28;20411;-82
2022/09/13 06:34:01;;;;;;;3.17;1.23;;;18.40;59.00;;;;;;5052807;28;20371;-79
2022/09/13 06:36:28;;;;;;;4.95;1.30;;;17.60;60.80;;;;;;5052592;28;20392;-79
2022/09/13 06:38:56;;;;;;;4.72;1.40;;;17.00;63.50;;;;;;5052415;28;20387;-80
2022/09/13 06:41:26;;;;;;;4.25;1.40;;;16.50;64.90;;;;;;5053050;28;20396;-80
2022/09/13 06:43:56;;;;;;;4.65;1.25;;;16.20;66.70;;;;;;5053470;28;20376;-81
2022/09/13 06:46:23;;;;;;;5.47;1.40;;;15.90;67.90;;;;;;5045674;28;20383;-82
2022/09/13 06:48:51;;;;;;;5.15;1.20;;;15.80;68.80;;;;;;5063091;28;20376;-78
2022/09/13 06:51:22;;;;;;;3.72;1.20;;;15.70;68.70;;;;;;5069146;28;20439;-82
2022/09/13 06:53:51;;;;;;;5.63;1.30;;;15.50;69.20;;;;;;5066543;28;20379;-77
2022/09/13 06:56:22;;;;;;;6.50;1.17;;;15.40;70.00;;;;;;5060925;28;20381;-78
2022/09/13 06:58:51;;;;;;;3.53;1.10;;;15.40;69.50;;;;;;5058170;28;20369;-80
2022/09/13 07:01:19;;;;;;;4.80;1.23;;;15.30;70.00;;;;;;5073923;28;20425;-80
2022/09/13 07:03:51;;;;;;;5.55;1.23;;;15.20;70.50;;;;;;5073547;28;20387;-76
2022/09/13 07:06:25;;;;;;;5.88;1.45;;;15.20;70.80;;;;;;5073994;28;20379;-86
2022/09/13 07:08:54;;;;;;;4.72;1.10;;;15.20;70.50;;;;;;5072389;28;20372;-79
2022/09/13 07:11:23;;;;;;;4.82;1.20;;;15.20;71.00;;;;;;5068866;28;20905;-83
2022/09/13 07:13:52;;;;;;;5.10;1.20;;;15.00;71.50;;;;;;5063088;28;20390;-82
2022/09/13 07:16:22;;;;;;;4.40;1.30;;;14.80;72.20;;;;;;5059092;28;20380;-77
2022/09/13 07:19:00;;;;;;;4.07;1.27;;;14.70;73.00;;;;;;5053282;28;20380;-82
2022/09/13 07:21:28;;;;;;;6.85;1.20;;;14.50;73.50;;;;;;5055945;28;20375;-87
2022/09/13 07:23:56;;;;;;;4.80;1.33;;;14.40;74.90;;;;;;5055847;28;20390;-76
2022/09/13 07:26:26;;;;;;;5.97;1.30;;;14.30;75.70;;;;;;5054738;28;20385;-81
2022/09/13 07:28:59;;;;;;;6.07;1.40;;;14.10;77.40;;;;;;5055689;28;20883;-87
2022/09/13 07:31:37;;;;;;;5.30;1.30;;;14.00;78.40;;;;;;5062000;28;20370;-87
2022/09/13 07:34:08;;;;;;;4.13;1.25;;;14.00;79.90;;;;;;5034939;28;20755;-82
2022/09/13 07:36:36;;;;;;;5.60;1.58;;;13.90;81.30;;;;;;5051033;28;20448;-84
2022/09/13 07:39:04;;;;;;;5.57;1.27;;;13.80;82.30;;;;;;5050704;28;20379;-86
2022/09/13 07:41:33;;;;;;;6.03;1.30;;;13.70;83.60;;;;;;5049916;28;20526;-81
2022/09/13 07:44:06;;;;;;;7.57;1.42;;;13.70;85.00;;;;;;5050252;28;20384;-79
2022/09/13 07:46:38;;;;;;;5.78;1.23;;;13.60;85.70;;;;;;5050281;28;20364;-84
2022/09/13 07:49:06;;;;;;;5.20;1.38;;;13.60;86.60;;;;;;5050809;28;20395;-82
2022/09/13 07:51:37;;;;;;;5.72;1.30;;;13.60;87.70;;;;;;5049446;28;20430;-82
2022/09/13 07:54:07;;;;;;;7.18;1.50;;;13.50;88.80;;;;;;5050070;28;20608;-80
2022/09/13 07:56:36;;;;;;;5.18;1.40;;;13.40;89.40;;;;;;5036392;28;20396;-87
2022/09/13 07:59:06;;;;;;;7.03;1.60;;;13.40;90.60;;;;;;5050364;28;20865;-81
2022/09/13 08:01:38;;;;;;;4.70;1.33;;;13.40;90.90;;;;;;5049777;28;20862;-78
2022/09/13 08:04:08;;;;;;;4.70;1.30;;;13.30;91.00;;;;;;5049652;28;20426;-80
2022/09/13 08:06:38;;;;;;;5.00;1.30;;;13.30;91.60;;;;;;5027760;28;20398;-85
2022/09/13 08:09:07;;;;;;;4.75;1.30;;;13.30;91.90;;;;;;5051335;28;20445;-79
2022/09/13 08:11:50;;;;;;;4.03;1.15;;;13.30;92.30;;;;;;5066357;28;20372;-83
2022/09/13 08:14:22;;;;;;;5.53;1.48;;;13.30;92.60;;;;;;5055798;28;20376;-88
2022/09/13 08:16:49;;;;;;;4.50;1.50;;;13.20;92.90;;;;;;5050620;28;20399;-88
2022/09/13 08:19:18;;;;;;;7.00;1.50;;;13.30;93.10;;;;;;5049809;28;20418;-80
2022/09/13 08:21:48;;;;;;;6.43;1.52;;;13.20;93.40;;;;;;5050533;28;20379;-88
2022/09/13 08:24:20;;;;;;;6.38;1.50;;;13.20;94.10;;;;;;5036775;28;20372;-88
2022/09/13 08:26:48;;;;;;;6.13;1.50;;;13.20;93.80;;;;;;5049300;28;20379;-80
2022/09/13 08:29:16;;;;;;;5.90;1.50;;;13.30;93.90;;;;;;5052418;28;20379;-84
2022/09/13 08:31:43;;;;;;;5.70;1.60;;;13.30;94.50;;;;;;5053924;28;20379;-87
2022/09/13 08:34:13;;;;;;;4.88;1.38;;;13.40;94.60;;;;;;5053479;28;20388;-83
2022/09/13 08:36:41;;;;;;;4.15;1.30;;;13.40;94.80;;;;;;5053701;28;20709;-84
2022/09/13 08:39:11;;;;;;;6.80;1.67;;;13.40;94.70;;;;;;5056508;28;20371;-83
2022/09/13 08:42:16;;;;;;;7.40;1.70;;;13.40;94.70;;;;;;5059319;28;20380;-82
2022/09/13 08:44:49;;;;;;;6.15;1.65;;;13.40;95.00;;;;;;5057644;28;20371;-79
2022/09/13 08:47:36;;;;;;;7.72;1.60;;;13.40;95.00;;;;;;5058204;28;20421;-76
2022/09/13 08:50:06;;;;;;;5.53;1.67;;;13.40;95.30;;;;;;5046850;28;20420;-80
2022/09/13 08:52:44;;;;;;;5.10;1.58;;;13.40;95.20;;;;;;5057942;28;20375;-83
2022/09/13 08:55:44;;;;;;;6.10;1.52;;;13.30;95.20;;;;;;5060573;28;20378;-85
2022/09/13 08:58:26;;;;;;;5.45;1.38;;;13.30;95.30;;;;;;5039469;28;20445;-85
2022/09/13 09:01:18;;;;;;;5.28;1.45;;;13.30;95.50;;;;;;5070203;28;20391;-84
2022/09/13 09:03:55;;;;;;;5.60;1.40;;;13.30;95.70;;;;;;5049674;28;20376;-84
2022/09/13 09:06:39;;;;;;;5.07;1.40;;;13.30;96.10;;;;;;5056170;28;20372;-79
2022/09/13 09:09:13;;;;;;;5.07;1.60;;;13.30;95.80;;;;;;5057353;28;20368;-81
2022/09/13 09:12:15;;;;;;;5.10;1.58;;;13.30;95.70;;;;;;5060547;28;21147;-84
2022/09/13 09:14:46;;;;;;;6.85;1.50;;;13.30;95.80;;;;;;4978945;28;20377;-82
2022/09/13 09:17:29;;;;;;;7.88;1.80;;;13.20;95.90;;;;;;4980815;28;20904;-83
2022/09/13 09:20:10;;;;;;;4.60;1.40;;;13.20;96.20;;;;;;4998001;28;20405;-82
2022/09/13 09:22:38;;;;;;;6.43;1.70;;;13.20;96.20;;;;;;4973189;28;20502;-82
2022/09/13 09:25:10;;;;;;;10.38;1.80;;;13.20;96.30;;;;;;4998668;28;20392;-85
2022/09/13 09:27:37;;;;;;;10.93;1.90;;;13.20;96.40;;;;;;4980434;28;20408;-86
2022/09/13 09:30:06;;;;;;;13.25;2.75;;;13.20;96.40;;;;;;4995301;28;20388;-82
2022/09/13 09:32:45;;;;;;;19.73;5.00;;;13.20;96.60;;;;;;5009061;28;20392;-82
2022/09/13 09:36:07;;;;;;;50.03;18.90;;;13.20;96.90;;;;;;4996321;28;20407;-79
2022/09/13 09:38:41;;;;;;;17.33;6.80;;;13.10;97.10;;;;;;4916905;29;20403;-81
2022/09/13 09:41:26;;;;;;;17.40;7.20;;;13.10;97.20;;;;;;4919900;29;21076;-81
2022/09/13 09:44:00;;;;;;;9.30;4.03;;;12.90;97.40;;;;;;4918491;29;20398;-82
2022/09/13 09:46:31;;;;;;;8.27;2.95;;;12.90;97.90;;;;;;4918708;29;20903;-82
2022/09/13 09:50:07;;;;;;;10.90;3.22;;;12.80;98.30;;;;;;4917272;29;20399;-82
2022/09/13 09:52:05;;;;;;;7.47;1.90;;;12.70;98.50;;;;;;4928288;29;20386;-83
2022/09/13 09:54:34;;;;;;;9.57;2.55;;;12.70;98.70;;;;;;4955116;29;20384;-80
2022/09/13 09:57:06;;;;;;;14.13;2.50;;;12.80;98.70;;;;;;4944487;28;20433;-81
2022/09/13 09:59:34;;;;;;;9.95;2.17;;;12.70;99.00;;;;;;4937257;29;20386;-80
2022/09/13 10:02:23;;;;;;;8.77;1.80;;;12.70;99.10;;;;;;4934542;29;20965;-81
2022/09/13 10:04:59;;;;;;;8.35;1.67;;;12.70;99.00;;;;;;4933316;29;20394;-82
2022/09/13 10:07:35;;;;;;;6.70;1.80;;;12.80;98.70;;;;;;4950944;28;20392;-80
2022/09/13 10:10:29;;;;;;;6.85;1.73;;;12.80;98.70;;;;;;4941029;29;20488;-81
2022/09/13 10:12:58;;;;;;;7.10;1.90;;;12.80;99.10;;;;;;4934174;29;20403;-83
2022/09/13 10:15:33;;;;;;;9.48;1.70;;;11.70;98.70;;;;;;5019115;28;20414;-82
2022/09/13 10:18:06;;;;;;;8.85;1.85;;;12.80;99.30;;;;;;5065966;28;20431;-85
2022/09/13 10:20:34;;;;;;;17.30;5.32;;;12.90;99.70;;;;;;5061693;28;20375;-81
2022/09/13 10:23:18;;;;;;;7.35;2.53;;;12.80;99.30;;;;;;5068898;28;20376;-78
2022/09/13 10:25:56;;;;;;;13.13;2.22;;;12.70;99.40;;;;;;5057523;28;20383;-81
2022/09/13 10:28:25;;;;;;;7.53;1.90;;;12.70;99.90;;;;;;5063393;28;20368;-79
2022/09/13 10:31:04;;;;;;;8.48;2.00;;;12.70;99.90;;;;;;5076655;28;20411;-79
2022/09/13 10:33:36;;;;;;;10.30;2.60;;;12.80;99.90;;;;;;5043368;28;20418;-79
2022/09/13 10:36:14;;;;;;;10.82;2.55;;;12.80;99.90;;;;;;5043722;28;20371;-79
2022/09/13 10:39:00;;;;;;;8.23;2.67;;;12.80;99.90;;;;;;5056244;28;21023;-83
2022/09/13 10:41:30;;;;;;;10.13;2.40;;;12.80;99.90;;;;;;5055765;28;20400;-82
2022/09/13 10:44:05;;;;;;;8.15;2.20;;;13.00;99.90;;;;;;5056375;28;20394;-80
2022/09/13 10:46:39;;;;;;;7.03;2.03;;;12.70;99.90;;;;;;5068538;28;20367;-81
2022/09/13 10:49:26;;;;;;;11.38;2.30;;;12.70;99.90;;;;;;5054398;28;20873;-79
2022/09/13 10:51:53;;;;;;;5.03;1.88;;;12.60;99.90;;;;;;5054250;28;20387;-80
2022/09/13 10:54:23;;;;;;;6.28;2.00;;;12.70;99.90;;;;;;5054895;28;20372;-80
2022/09/13 10:56:51;;;;;;;9.50;2.20;;;12.70;99.90;;;;;;5036174;28;20411;-80
2022/09/13 10:59:28;;;;;;;8.13;2.15;;;12.60;99.90;;;;;;5035999;28;20371;-80
2022/09/13 11:01:59;;;;;;;5.80;2.13;;;12.60;99.90;;;;;;5067139;28;20388;-81
2022/09/13 11:05:00;;;;;;;7.45;2.10;;;12.50;99.90;;;;;;5059988;28;21184;-79
2022/09/13 11:07:56;;;;;;;7.23;1.83;;;12.50;99.90;;;;;;5045497;28;20371;-78
2022/09/13 11:11:01;;;;;;;5.63;1.70;;;12.50;99.90;;;;;;5056152;28;20928;-82
2022/09/13 11:13:51;;;;;;;9.37;1.90;;;12.50;99.90;;;;;;4993455;28;20475;-81
2022/09/13 11:16:36;;;;;;;9.50;1.98;;;12.40;99.90;;;;;;4993926;28;20419;-80
2022/09/13 11:19:22;;;;;;;10.18;2.20;;;12.40;99.90;;;;;;4994890;28;20381;-81
2022/09/13 11:22:25;;;;;;;7.45;1.85;;;12.40;99.90;;;;;;4995691;28;20389;-81
2022/09/13 11:25:10;;;;;;;8.88;2.30;;;12.30;99.90;;;;;;4989884;28;20534;-80
2022/09/13 11:28:07;;;;;;;13.00;2.30;;;12.30;99.90;;;;;;4990032;28;20427;-80
2022/09/13 11:31:04;;;;;;;8.75;2.22;;;12.30;99.90;;;;;;4991548;28;20433;-79
2022/09/13 11:34:06;;;;;;;8.48;2.22;;;12.20;99.90;;;;;;4965133;28;20885;-79
2022/09/13 11:36:58;;;;;;;14.45;2.30;;;12.20;99.90;;;;;;4929760;29;20409;-80
2022/09/13 11:39:49;;;;;;;14.07;2.28;;;12.10;99.90;;;;;;4920322;29;20885;-81
2022/09/13 11:42:34;;;;;;;9.27;2.10;;;12.00;99.90;;;;;;4916766;29;20399;-81
2022/09/13 11:45:35;;;;;;;9.13;1.97;;;11.90;99.90;;;;;;4913359;29;20439;-81
2022/09/13 11:48:18;;;;;;;7.10;1.80;;;11.90;99.90;;;;;;4915606;29;20392;-80
2022/09/13 11:51:12;;;;;;;7.53;1.83;;;11.80;99.90;;;;;;4953718;28;20374;-82
2022/09/13 11:53:39;;;;;;;5.82;1.70;;;11.80;99.90;;;;;;4962768;28;20389;-80
2022/09/13 11:56:21;;;;;;;7.15;1.70;;;11.90;99.90;;;;;;4970202;28;20925;-81
2022/09/13 11:58:59;;;;;;;7.75;1.80;;;11.90;99.90;;;;;;4968379;28;20439;-80
2022/09/13 12:01:35;;;;;;;7.55;2.03;;;11.90;99.90;;;;;;4969638;28;20378;-80
2022/09/13 12:04:28;;;;;;;7.57;2.20;;;12.20;99.90;;;;;;4973738;28;20382;-79
2022/09/13 12:07:02;;;;;;;7.20;2.15;;;12.00;99.90;;;;;;4973707;28;20859;-80
2022/09/13 12:09:45;;;;;;;8.70;2.25;;;11.90;99.90;;;;;;4974049;28;20544;-81
2022/09/13 12:12:13;;;;;;;8.98;2.10;;;11.90;99.90;;;;;;4978170;28;20400;-82
2022/09/13 12:15:14;;;;;;;7.43;2.10;;;11.90;99.90;;;;;;5057576;28;20448;-88
2022/09/13 12:17:58;;;;;;;5.47;2.17;;;11.80;99.90;;;;;;4994785;28;20399;-80
2022/09/13 12:20:30;;;;;;;7.07;2.58;;;11.80;99.90;;;;;;5011268;28;20398;-86
2022/09/13 12:23:02;;;;;;;7.30;2.45;;;11.80;99.90;;;;;;5011491;28;20740;-85
2022/09/13 12:25:59;;;;;;;9.30;2.50;;;11.80;99.90;;;;;;5011391;28;20371;-86
2022/09/13 12:28:34;;;;;;;7.50;2.58;;;11.80;99.90;;;;;;5011427;28;20717;-83
2022/09/13 12:31:18;;;;;;;7.18;2.78;;;11.80;99.90;;;;;;5011796;28;20426;-87
2022/09/13 12:33:47;;;;;;;7.90;2.90;;;11.70;99.90;;;;;;5024700;28;20425;-86
2022/09/13 12:36:28;;;;;;;7.50;2.80;;;11.70;99.90;;;;;;5011765;28;20398;-82
2022/09/13 12:39:33;;;;;;;8.15;2.65;;;11.70;99.90;;;;;;5005543;28;20387;-80
2022/09/13 12:42:29;;;;;;;9.50;2.90;;;11.70;99.90;;;;;;5011564;28;20556;-80
2022/09/13 12:44:59;;;;;;;8.50;2.70;;;11.70;99.90;;;;;;5011559;28;20871;-80
2022/09/13 12:47:32;;;;;;;8.93;2.83;;;11.70;99.90;;;;;;5013972;28;20383;-80
2022/09/13 12:50:28;;;;;;;7.15;2.90;;;11.70;99.90;;;;;;5042372;28;20372;-84
2022/09/13 12:53:21;;;;;;;6.18;2.50;;;11.70;99.90;;;;;;4973594;28;20388;-82
2022/09/13 12:56:00;;;;;;;5.43;2.53;;;11.60;99.90;;;;;;4970268;28;20378;-81
2022/09/13 12:58:42;;;;;;;8.07;2.50;;;11.60;99.90;;;;;;4974718;28;20898;-83
2022/09/13 13:01:17;;;;;;;5.53;2.00;;;11.60;99.90;;;;;;4974714;28;20817;-81
2022/09/13 13:03:55;;;;;;;8.23;2.33;;;11.60;99.90;;;;;;4971748;28;20855;-82
2022/09/13 13:06:37;;;;;;;5.97;1.80;;;11.50;99.90;;;;;;4972564;28;20417;-84
2022/09/13 13:09:41;;;;;;;7.10;2.20;;;11.60;99.90;;;;;;4971376;28;20421;-80
2022/09/13 13:12:28;;;;;;;7.82;1.80;;;11.50;99.90;;;;;;4936226;28;20390;-81
2022/09/13 13:14:55;;;;;;;8.50;1.90;;;11.60;99.90;;;;;;4951793;28;20490;-80
2022/09/13 13:17:43;;;;;;;6.10;1.80;;;11.50;99.90;;;;;;4941747;28;20425;-79
2022/09/13 13:20:46;;;;;;;6.07;1.70;;;11.50;99.90;;;;;;4947836;28;20384;-80
2022/09/13 13:23:23;;;;;;;5.70;1.70;;;11.50;99.90;;;;;;4951940;28;20425;-80
2022/09/13 13:26:32;;;;;;;5.93;1.58;;;11.50;99.90;;;;;;4946032;28;20392;-82
2022/09/13 13:29:22;;;;;;;6.20;1.63;;;11.60;99.90;;;;;;4971358;28;20402;-85
2022/09/13 13:32:07;;;;;;;5.93;1.55;;;11.50;99.90;;;;;;5005120;28;20383;-83
2022/09/13 13:34:39;;;;;;;5.50;1.60;;;11.60;99.90;;;;;;5005823;28;20932;-81